Lawrence, Michigan
Current Conditions -  °F | °C
As of 7:15 AM on Thursday 29 Jan 2015 (Local Time) from KLWA Reporting Station
Overcast Overcast  
Wind Chill: 33°   Ceiling: 3500
Heat Index: 33°   Visibility: 10mi
Dew Point: 27°   Wind: 0mph
Humidity: 77%   Direction: NA
Pressure: 29.71"   Gusts: NA
Location:  42.22°N, 86.05°W
Report Text: KLWA 291215Z AUTO 00000KT 10SM OVC035 01/M03 A2971 RMK AO2 T00081028
Loading
Personal Weather Stations






























Interactive Weather Map New forecast layout! Learn more

10-Day Weather Forecast

Advertisements
Track Severe Weather on mobile